sensor_id;sensor_type;location;lat;lon;timestamp;P1;durP1;ratioP1;P2;durP2;ratioP2
11004;SDS011;5555;59.622;16.556;2024-01-06T00:00:20;3.97;;;2.53;;
11004;SDS011;5555;59.622;16.556;2024-01-06T00:02:48;3.17;;;2.87;;
11004;SDS011;5555;59.622;16.556;2024-01-06T00:05:14;4.17;;;2.57;;
11004;SDS011;5555;59.622;16.556;2024-01-06T00:07:40;3.50;;;2.20;;
11004;SDS011;5555;59.622;16.556;2024-01-06T00:10:06;3.17;;;2.37;;
11004;SDS011;5555;59.622;16.556;2024-01-06T00:12:31;3.30;;;2.90;;
11004;SDS011;5555;59.622;16.556;2024-01-06T00:14:57;4.77;;;2.30;;
11004;SDS011;5555;59.622;16.556;2024-01-06T00:17:23;3.47;;;2.50;;
11004;SDS011;5555;59.622;16.556;2024-01-06T00:19:48;3.93;;;2.70;;
11004;SDS011;5555;59.622;16.556;2024-01-06T00:22:17;2.50;;;2.30;;
11004;SDS011;5555;59.622;16.556;2024-01-06T00:24:44;5.53;;;2.83;;
11004;SDS011;5555;59.622;16.556;2024-01-06T00:27:09;2.50;;;2.30;;
11004;SDS011;5555;59.622;16.556;2024-01-06T00:29:35;3.33;;;2.87;;
11004;SDS011;5555;59.622;16.556;2024-01-06T00:32:01;3.40;;;2.67;;
11004;SDS011;5555;59.622;16.556;2024-01-06T00:34:26;3.40;;;2.50;;
11004;SDS011;5555;59.622;16.556;2024-01-06T00:36:52;4.07;;;2.80;;
11004;SDS011;5555;59.622;16.556;2024-01-06T00:39:18;5.30;;;3.73;;
11004;SDS011;5555;59.622;16.556;2024-01-06T00:41:45;3.63;;;2.53;;
11004;SDS011;5555;59.622;16.556;2024-01-06T00:44:11;3.83;;;2.97;;
11004;SDS011;5555;59.622;16.556;2024-01-06T00:46:36;4.17;;;2.87;;
11004;SDS011;5555;59.622;16.556;2024-01-06T00:49:02;4.43;;;2.73;;
11004;SDS011;5555;59.622;16.556;2024-01-06T00:51:28;3.90;;;2.50;;
11004;SDS011;5555;59.622;16.556;2024-01-06T00:53:54;3.03;;;2.77;;
11004;SDS011;5555;59.622;16.556;2024-01-06T00:56:20;2.77;;;2.47;;
11004;SDS011;5555;59.622;16.556;2024-01-06T00:58:46;4.67;;;3.17;;
11004;SDS011;5555;59.622;16.556;2024-01-06T01:01:11;3.30;;;2.27;;
11004;SDS011;5555;59.622;16.556;2024-01-06T01:03:37;2.93;;;2.63;;
11004;SDS011;5555;59.622;16.556;2024-01-06T01:06:03;3.33;;;2.53;;
11004;SDS011;5555;59.622;16.556;2024-01-06T01:08:29;4.40;;;2.30;;
11004;SDS011;5555;59.622;16.556;2024-01-06T01:10:55;2.43;;;2.20;;
11004;SDS011;5555;59.622;16.556;2024-01-06T01:13:22;3.37;;;2.40;;
11004;SDS011;5555;59.622;16.556;2024-01-06T01:15:48;3.37;;;2.17;;
11004;SDS011;5555;59.622;16.556;2024-01-06T01:18:13;3.23;;;2.23;;
11004;SDS011;5555;59.622;16.556;2024-01-06T01:20:39;3.13;;;2.50;;
11004;SDS011;5555;59.622;16.556;2024-01-06T01:23:07;2.83;;;2.47;;
11004;SDS011;5555;59.622;16.556;2024-01-06T01:25:33;3.53;;;2.50;;
11004;SDS011;5555;59.622;16.556;2024-01-06T01:27:58;3.37;;;2.40;;
11004;SDS011;5555;59.622;16.556;2024-01-06T01:30:24;2.90;;;2.60;;
11004;SDS011;5555;59.622;16.556;2024-01-06T01:32:50;4.50;;;2.50;;
11004;SDS011;5555;59.622;16.556;2024-01-06T01:35:15;2.80;;;2.20;;
11004;SDS011;5555;59.622;16.556;2024-01-06T01:37:41;2.17;;;1.93;;
11004;SDS011;5555;59.622;16.556;2024-01-06T01:40:07;3.03;;;2.40;;
11004;SDS011;5555;59.622;16.556;2024-01-06T01:42:33;2.40;;;2.07;;
11004;SDS011;5555;59.622;16.556;2024-01-06T01:44:59;2.87;;;2.50;;
11004;SDS011;5555;59.622;16.556;2024-01-06T01:47:24;2.83;;;2.00;;
11004;SDS011;5555;59.622;16.556;2024-01-06T01:49:51;3.83;;;2.50;;
11004;SDS011;5555;59.622;16.556;2024-01-06T01:52:19;2.87;;;2.37;;
11004;SDS011;5555;59.622;16.556;2024-01-06T01:54:45;3.57;;;2.40;;
11004;SDS011;5555;59.622;16.556;2024-01-06T01:57:11;2.70;;;2.33;;
11004;SDS011;5555;59.622;16.556;2024-01-06T01:59:38;2.23;;;2.03;;
11004;SDS011;5555;59.622;16.556;2024-01-06T02:02:05;2.80;;;2.47;;
11004;SDS011;5555;59.622;16.556;2024-01-06T02:04:31;3.27;;;2.60;;
11004;SDS011;5555;59.622;16.556;2024-01-06T02:06:57;3.77;;;1.97;;
11004;SDS011;5555;59.622;16.556;2024-01-06T02:09:23;3.03;;;2.10;;
11004;SDS011;5555;59.622;16.556;2024-01-06T02:11:52;2.73;;;2.13;;
11004;SDS011;5555;59.622;16.556;2024-01-06T02:14:18;2.90;;;2.27;;
11004;SDS011;5555;59.622;16.556;2024-01-06T02:16:43;2.50;;;2.30;;
11004;SDS011;5555;59.622;16.556;2024-01-06T02:19:09;3.23;;;2.50;;
11004;SDS011;5555;59.622;16.556;2024-01-06T02:21:39;3.17;;;2.00;;
11004;SDS011;5555;59.622;16.556;2024-01-06T02:24:08;3.13;;;2.43;;
11004;SDS011;5555;59.622;16.556;2024-01-06T02:26:33;2.63;;;1.90;;
11004;SDS011;5555;59.622;16.556;2024-01-06T02:28:59;4.43;;;2.30;;
11004;SDS011;5555;59.622;16.556;2024-01-06T02:31:25;2.87;;;2.20;;
11004;SDS011;5555;59.622;16.556;2024-01-06T02:33:50;3.07;;;2.40;;
11004;SDS011;5555;59.622;16.556;2024-01-06T02:36:16;3.10;;;2.50;;
11004;SDS011;5555;59.622;16.556;2024-01-06T02:38:41;3.03;;;2.20;;
11004;SDS011;5555;59.622;16.556;2024-01-06T02:41:07;2.30;;;1.90;;
11004;SDS011;5555;59.622;16.556;2024-01-06T02:43:33;2.63;;;2.00;;
11004;SDS011;5555;59.622;16.556;2024-01-06T02:45:58;2.17;;;1.80;;
11004;SDS011;5555;59.622;16.556;2024-01-06T02:48:24;3.17;;;2.00;;
11004;SDS011;5555;59.622;16.556;2024-01-06T02:50:50;2.60;;;2.40;;
11004;SDS011;5555;59.622;16.556;2024-01-06T02:53:15;2.47;;;2.17;;
11004;SDS011;5555;59.622;16.556;2024-01-06T02:55:41;3.07;;;2.17;;
11004;SDS011;5555;59.622;16.556;2024-01-06T02:58:06;2.60;;;2.27;;
11004;SDS011;5555;59.622;16.556;2024-01-06T03:00:32;3.30;;;2.00;;
11004;SDS011;5555;59.622;16.556;2024-01-06T03:02:58;2.67;;;2.23;;
11004;SDS011;5555;59.622;16.556;2024-01-06T03:05:23;2.80;;;2.00;;
11004;SDS011;5555;59.622;16.556;2024-01-06T03:07:49;3.00;;;2.60;;
11004;SDS011;5555;59.622;16.556;2024-01-06T03:10:14;3.70;;;2.30;;
11004;SDS011;5555;59.622;16.556;2024-01-06T03:12:40;2.40;;;2.03;;
11004;SDS011;5555;59.622;16.556;2024-01-06T03:15:05;3.90;;;2.90;;
11004;SDS011;5555;59.622;16.556;2024-01-06T03:17:31;2.70;;;2.40;;
11004;SDS011;5555;59.622;16.556;2024-01-06T03:19:57;2.47;;;2.03;;
11004;SDS011;5555;59.622;16.556;2024-01-06T03:22:23;2.33;;;2.13;;
11004;SDS011;5555;59.622;16.556;2024-01-06T03:24:48;3.50;;;2.40;;
11004;SDS011;5555;59.622;16.556;2024-01-06T03:27:14;2.30;;;2.10;;
11004;SDS011;5555;59.622;16.556;2024-01-06T03:29:39;3.57;;;2.67;;
11004;SDS011;5555;59.622;16.556;2024-01-06T03:32:05;4.37;;;2.17;;
11004;SDS011;5555;59.622;16.556;2024-01-06T03:34:31;2.57;;;2.30;;
11004;SDS011;5555;59.622;16.556;2024-01-06T03:36:57;3.03;;;2.20;;
11004;SDS011;5555;59.622;16.556;2024-01-06T03:39:22;2.47;;;2.27;;
11004;SDS011;5555;59.622;16.556;2024-01-06T03:41:48;3.20;;;2.47;;
11004;SDS011;5555;59.622;16.556;2024-01-06T03:44:14;2.90;;;2.13;;
11004;SDS011;5555;59.622;16.556;2024-01-06T03:46:39;3.53;;;2.47;;
11004;SDS011;5555;59.622;16.556;2024-01-06T03:49:05;4.03;;;2.50;;
11004;SDS011;5555;59.622;16.556;2024-01-06T03:51:31;4.03;;;2.27;;
11004;SDS011;5555;59.622;16.556;2024-01-06T03:53:56;2.40;;;2.20;;
11004;SDS011;5555;59.622;16.556;2024-01-06T03:56:22;2.17;;;1.93;;
11004;SDS011;5555;59.622;16.556;2024-01-06T03:58:48;4.93;;;1.90;;
11004;SDS011;5555;59.622;16.556;2024-01-06T04:01:13;4.40;;;2.40;;
11004;SDS011;5555;59.622;16.556;2024-01-06T04:03:39;2.63;;;2.20;;
11004;SDS011;5555;59.622;16.556;2024-01-06T04:06:08;3.03;;;2.20;;
11004;SDS011;5555;59.622;16.556;2024-01-06T04:08:35;3.10;;;2.70;;
11004;SDS011;5555;59.622;16.556;2024-01-06T04:11:01;2.63;;;2.23;;
11004;SDS011;5555;59.622;16.556;2024-01-06T04:13:27;2.43;;;2.13;;
11004;SDS011;5555;59.622;16.556;2024-01-06T04:15:53;2.73;;;2.43;;
11004;SDS011;5555;59.622;16.556;2024-01-06T04:18:19;3.47;;;2.30;;
11004;SDS011;5555;59.622;16.556;2024-01-06T04:20:44;3.67;;;2.37;;
11004;SDS011;5555;59.622;16.556;2024-01-06T04:23:10;3.67;;;2.53;;
11004;SDS011;5555;59.622;16.556;2024-01-06T04:25:35;2.90;;;2.40;;
11004;SDS011;5555;59.622;16.556;2024-01-06T04:28:01;2.73;;;2.30;;
11004;SDS011;5555;59.622;16.556;2024-01-06T04:30:27;2.77;;;2.10;;
11004;SDS011;5555;59.622;16.556;2024-01-06T04:32:52;3.47;;;2.17;;
11004;SDS011;5555;59.622;16.556;2024-01-06T04:35:19;2.83;;;2.53;;
11004;SDS011;5555;59.622;16.556;2024-01-06T04:37:46;3.03;;;2.33;;
11004;SDS011;5555;59.622;16.556;2024-01-06T04:40:12;2.83;;;2.20;;
11004;SDS011;5555;59.622;16.556;2024-01-06T04:42:38;2.50;;;2.23;;
11004;SDS011;5555;59.622;16.556;2024-01-06T04:45:04;2.57;;;2.10;;
11004;SDS011;5555;59.622;16.556;2024-01-06T04:47:30;3.07;;;2.20;;
11004;SDS011;5555;59.622;16.556;2024-01-06T04:49:55;3.10;;;2.20;;
11004;SDS011;5555;59.622;16.556;2024-01-06T04:52:21;2.23;;;1.90;;
11004;SDS011;5555;59.622;16.556;2024-01-06T04:54:47;3.03;;;2.10;;
11004;SDS011;5555;59.622;16.556;2024-01-06T04:57:13;2.57;;;2.00;;
11004;SDS011;5555;59.622;16.556;2024-01-06T04:59:39;2.27;;;2.07;;
11004;SDS011;5555;59.622;16.556;2024-01-06T05:02:05;3.37;;;2.13;;
11004;SDS011;5555;59.622;16.556;2024-01-06T05:04:31;3.63;;;2.10;;
11004;SDS011;5555;59.622;16.556;2024-01-06T05:06:58;2.03;;;1.80;;
11004;SDS011;5555;59.622;16.556;2024-01-06T05:09:24;2.33;;;1.90;;
11004;SDS011;5555;59.622;16.556;2024-01-06T05:11:50;3.73;;;2.07;;
11004;SDS011;5555;59.622;16.556;2024-01-06T05:14:16;2.83;;;2.00;;
11004;SDS011;5555;59.622;16.556;2024-01-06T05:16:41;2.83;;;2.27;;
11004;SDS011;5555;59.622;16.556;2024-01-06T05:19:07;2.90;;;2.40;;
11004;SDS011;5555;59.622;16.556;2024-01-06T05:21:33;2.47;;;2.23;;
11004;SDS011;5555;59.622;16.556;2024-01-06T05:23:59;4.17;;;2.53;;
11004;SDS011;5555;59.622;16.556;2024-01-06T05:26:25;2.27;;;2.07;;
11004;SDS011;5555;59.622;16.556;2024-01-06T05:28:51;2.70;;;2.20;;
11004;SDS011;5555;59.622;16.556;2024-01-06T05:31:17;2.70;;;2.50;;
11004;SDS011;5555;59.622;16.556;2024-01-06T05:33:42;2.40;;;2.17;;
11004;SDS011;5555;59.622;16.556;2024-01-06T05:36:08;2.23;;;2.00;;
11004;SDS011;5555;59.622;16.556;2024-01-06T05:38:33;2.27;;;2.07;;
11004;SDS011;5555;59.622;16.556;2024-01-06T05:40:59;3.30;;;2.50;;
11004;SDS011;5555;59.622;16.556;2024-01-06T05:43:25;3.33;;;2.40;;
11004;SDS011;5555;59.622;16.556;2024-01-06T05:45:51;2.43;;;2.00;;
11004;SDS011;5555;59.622;16.556;2024-01-06T05:48:16;2.27;;;2.07;;
11004;SDS011;5555;59.622;16.556;2024-01-06T05:50:42;4.20;;;2.50;;
11004;SDS011;5555;59.622;16.556;2024-01-06T05:53:08;4.27;;;1.87;;
11004;SDS011;5555;59.622;16.556;2024-01-06T05:55:34;4.57;;;2.77;;
11004;SDS011;5555;59.622;16.556;2024-01-06T05:57:59;6.10;;;2.40;;
11004;SDS011;5555;59.622;16.556;2024-01-06T06:00:26;3.00;;;2.63;;
11004;SDS011;5555;59.622;16.556;2024-01-06T06:02:51;2.70;;;2.23;;
11004;SDS011;5555;59.622;16.556;2024-01-06T06:05:17;3.13;;;2.53;;
11004;SDS011;5555;59.622;16.556;2024-01-06T06:07:43;3.73;;;2.50;;
11004;SDS011;5555;59.622;16.556;2024-01-06T06:10:09;3.03;;;2.20;;
11004;SDS011;5555;59.622;16.556;2024-01-06T06:12:36;3.27;;;2.20;;
11004;SDS011;5555;59.622;16.556;2024-01-06T06:15:02;2.43;;;2.23;;
11004;SDS011;5555;59.622;16.556;2024-01-06T06:17:29;3.20;;;2.73;;
11004;SDS011;5555;59.622;16.556;2024-01-06T06:19:56;2.80;;;2.17;;
11004;SDS011;5555;59.622;16.556;2024-01-06T06:22:22;4.97;;;2.60;;
11004;SDS011;5555;59.622;16.556;2024-01-06T06:24:48;4.20;;;2.40;;
11004;SDS011;5555;59.622;16.556;2024-01-06T06:27:14;2.57;;;1.93;;
11004;SDS011;5555;59.622;16.556;2024-01-06T06:29:39;2.60;;;2.27;;
11004;SDS011;5555;59.622;16.556;2024-01-06T06:32:05;2.67;;;2.23;;
11004;SDS011;5555;59.622;16.556;2024-01-06T06:34:31;3.27;;;2.33;;
11004;SDS011;5555;59.622;16.556;2024-01-06T06:36:56;2.83;;;2.17;;
11004;SDS011;5555;59.622;16.556;2024-01-06T06:39:23;3.77;;;2.53;;
11004;SDS011;5555;59.622;16.556;2024-01-06T06:41:49;3.33;;;2.37;;
11004;SDS011;5555;59.622;16.556;2024-01-06T06:44:14;2.50;;;2.30;;
11004;SDS011;5555;59.622;16.556;2024-01-06T06:46:40;3.43;;;2.13;;
11004;SDS011;5555;59.622;16.556;2024-01-06T06:49:06;2.80;;;2.30;;
11004;SDS011;5555;59.622;16.556;2024-01-06T06:51:31;2.30;;;2.10;;
11004;SDS011;5555;59.622;16.556;2024-01-06T06:53:57;2.90;;;2.60;;
11004;SDS011;5555;59.622;16.556;2024-01-06T06:56:23;2.30;;;2.10;;
11004;SDS011;5555;59.622;16.556;2024-01-06T06:58:49;2.80;;;2.50;;
11004;SDS011;5555;59.622;16.556;2024-01-06T07:01:15;3.27;;;2.23;;
11004;SDS011;5555;59.622;16.556;2024-01-06T07:03:41;2.57;;;2.37;;
11004;SDS011;5555;59.622;16.556;2024-01-06T07:06:07;2.43;;;2.23;;
11004;SDS011;5555;59.622;16.556;2024-01-06T07:08:32;3.27;;;2.43;;
11004;SDS011;5555;59.622;16.556;2024-01-06T07:10:58;2.33;;;2.13;;
11004;SDS011;5555;59.622;16.556;2024-01-06T07:13:24;2.40;;;2.20;;
11004;SDS011;5555;59.622;16.556;2024-01-06T07:15:49;2.40;;;2.10;;
11004;SDS011;5555;59.622;16.556;2024-01-06T07:18:15;4.50;;;2.30;;
11004;SDS011;5555;59.622;16.556;2024-01-06T07:20:40;3.23;;;2.47;;
11004;SDS011;5555;59.622;16.556;2024-01-06T07:23:06;3.63;;;2.50;;
11004;SDS011;5555;59.622;16.556;2024-01-06T07:25:32;2.27;;;2.03;;
11004;SDS011;5555;59.622;16.556;2024-01-06T07:27:57;3.40;;;2.13;;
11004;SDS011;5555;59.622;16.556;2024-01-06T07:30:23;2.33;;;1.77;;
11004;SDS011;5555;59.622;16.556;2024-01-06T07:32:49;2.70;;;2.20;;
11004;SDS011;5555;59.622;16.556;2024-01-06T07:35:16;3.73;;;2.30;;
11004;SDS011;5555;59.622;16.556;2024-01-06T07:37:41;3.37;;;2.30;;
11004;SDS011;5555;59.622;16.556;2024-01-06T07:40:07;3.00;;;1.97;;
11004;SDS011;5555;59.622;16.556;2024-01-06T07:42:33;3.17;;;2.10;;
11004;SDS011;5555;59.622;16.556;2024-01-06T07:44:59;2.77;;;1.83;;
11004;SDS011;5555;59.622;16.556;2024-01-06T07:47:24;3.63;;;1.93;;
11004;SDS011;5555;59.622;16.556;2024-01-06T07:49:50;2.33;;;1.70;;
11004;SDS011;5555;59.622;16.556;2024-01-06T07:52:17;1.70;;;1.60;;
11004;SDS011;5555;59.622;16.556;2024-01-06T07:54:43;3.50;;;2.00;;
11004;SDS011;5555;59.622;16.556;2024-01-06T07:57:09;2.50;;;2.20;;
11004;SDS011;5555;59.622;16.556;2024-01-06T07:59:36;3.13;;;2.10;;
11004;SDS011;5555;59.622;16.556;2024-01-06T08:02:01;2.10;;;1.90;;
11004;SDS011;5555;59.622;16.556;2024-01-06T08:04:27;2.67;;;1.70;;
11004;SDS011;5555;59.622;16.556;2024-01-06T08:06:53;1.90;;;1.77;;
11004;SDS011;5555;59.622;16.556;2024-01-06T08:09:18;2.53;;;2.10;;
11004;SDS011;5555;59.622;16.556;2024-01-06T08:11:44;2.83;;;1.97;;
11004;SDS011;5555;59.622;16.556;2024-01-06T08:14:13;3.53;;;2.00;;
11004;SDS011;5555;59.622;16.556;2024-01-06T08:16:38;2.17;;;1.97;;
11004;SDS011;5555;59.622;16.556;2024-01-06T08:19:04;2.40;;;1.83;;
11004;SDS011;5555;59.622;16.556;2024-01-06T08:21:29;2.23;;;2.00;;
11004;SDS011;5555;59.622;16.556;2024-01-06T08:23:55;2.90;;;1.80;;
11004;SDS011;5555;59.622;16.556;2024-01-06T08:26:21;3.37;;;2.33;;
11004;SDS011;5555;59.622;16.556;2024-01-06T08:28:46;3.27;;;2.17;;
11004;SDS011;5555;59.622;16.556;2024-01-06T08:31:12;3.67;;;2.30;;
11004;SDS011;5555;59.622;16.556;2024-01-06T08:33:38;2.90;;;2.17;;
11004;SDS011;5555;59.622;16.556;2024-01-06T08:36:03;2.40;;;2.07;;
11004;SDS011;5555;59.622;16.556;2024-01-06T08:38:30;4.07;;;2.53;;
11004;SDS011;5555;59.622;16.556;2024-01-06T08:40:55;2.40;;;2.20;;
11004;SDS011;5555;59.622;16.556;2024-01-06T08:43:21;2.20;;;2.00;;
11004;SDS011;5555;59.622;16.556;2024-01-06T08:45:47;4.13;;;2.20;;
11004;SDS011;5555;59.622;16.556;2024-01-06T08:48:13;3.40;;;2.10;;
11004;SDS011;5555;59.622;16.556;2024-01-06T08:50:40;2.50;;;2.10;;
11004;SDS011;5555;59.622;16.556;2024-01-06T08:53:05;5.30;;;2.53;;
11004;SDS011;5555;59.622;16.556;2024-01-06T08:55:31;3.97;;;2.70;;
11004;SDS011;5555;59.622;16.556;2024-01-06T08:57:56;3.97;;;2.50;;
11004;SDS011;5555;59.622;16.556;2024-01-06T09:00:22;3.03;;;2.50;;
11004;SDS011;5555;59.622;16.556;2024-01-06T09:02:48;2.70;;;2.43;;
11004;SDS011;5555;59.622;16.556;2024-01-06T09:05:14;3.57;;;2.43;;
11004;SDS011;5555;59.622;16.556;2024-01-06T09:07:39;2.60;;;2.30;;
11004;SDS011;5555;59.622;16.556;2024-01-06T09:10:05;2.70;;;2.50;;
11004;SDS011;5555;59.622;16.556;2024-01-06T09:12:31;2.73;;;2.40;;
11004;SDS011;5555;59.622;16.556;2024-01-06T09:14:57;2.97;;;2.40;;
11004;SDS011;5555;59.622;16.556;2024-01-06T09:17:22;2.67;;;2.40;;
11004;SDS011;5555;59.622;16.556;2024-01-06T09:19:48;3.00;;;2.40;;
11004;SDS011;5555;59.622;16.556;2024-01-06T09:22:14;2.97;;;2.43;;
11004;SDS011;5555;59.622;16.556;2024-01-06T09:24:40;4.23;;;3.10;;
11004;SDS011;5555;59.622;16.556;2024-01-06T09:27:05;3.53;;;2.83;;
11004;SDS011;5555;59.622;16.556;2024-01-06T09:29:31;3.90;;;2.77;;
11004;SDS011;5555;59.622;16.556;2024-01-06T09:31:56;3.37;;;2.83;;
11004;SDS011;5555;59.622;16.556;2024-01-06T09:34:22;3.87;;;2.53;;
11004;SDS011;5555;59.622;16.556;2024-01-06T09:36:48;4.30;;;2.90;;
11004;SDS011;5555;59.622;16.556;2024-01-06T09:39:13;5.17;;;3.00;;
11004;SDS011;5555;59.622;16.556;2024-01-06T09:41:39;5.50;;;3.00;;
11004;SDS011;5555;59.622;16.556;2024-01-06T09:44:04;3.53;;;2.73;;
11004;SDS011;5555;59.622;16.556;2024-01-06T09:46:31;3.37;;;2.60;;
11004;SDS011;5555;59.622;16.556;2024-01-06T09:48:57;4.37;;;2.60;;
11004;SDS011;5555;59.622;16.556;2024-01-06T09:51:23;3.30;;;2.67;;
11004;SDS011;5555;59.622;16.556;2024-01-06T09:53:58;4.40;;;2.67;;
11004;SDS011;5555;59.622;16.556;2024-01-06T09:56:25;6.10;;;2.20;;
11004;SDS011;5555;59.622;16.556;2024-01-06T09:58:52;4.30;;;2.23;;
11004;SDS011;5555;59.622;16.556;2024-01-06T10:01:19;4.57;;;2.37;;
11004;SDS011;5555;59.622;16.556;2024-01-06T10:03:45;3.00;;;2.60;;
11004;SDS011;5555;59.622;16.556;2024-01-06T10:06:10;4.23;;;2.73;;
11004;SDS011;5555;59.622;16.556;2024-01-06T10:08:36;2.97;;;2.50;;
11004;SDS011;5555;59.622;16.556;2024-01-06T10:11:05;6.17;;;2.73;;
11004;SDS011;5555;59.622;16.556;2024-01-06T10:13:32;3.03;;;2.77;;
11004;SDS011;5555;59.622;16.556;2024-01-06T10:15:58;2.57;;;2.33;;
11004;SDS011;5555;59.622;16.556;2024-01-06T10:18:24;4.37;;;2.93;;
11004;SDS011;5555;59.622;16.556;2024-01-06T10:20:52;3.97;;;2.67;;
11004;SDS011;5555;59.622;16.556;2024-01-06T10:23:18;5.73;;;3.33;;
11004;SDS011;5555;59.622;16.556;2024-01-06T10:25:44;3.03;;;2.73;;
11004;SDS011;5555;59.622;16.556;2024-01-06T10:28:12;4.63;;;3.27;;
11004;SDS011;5555;59.622;16.556;2024-01-06T10:30:41;4.83;;;3.10;;
11004;SDS011;5555;59.622;16.556;2024-01-06T10:33:10;4.87;;;3.37;;
11004;SDS011;5555;59.622;16.556;2024-01-06T10:35:36;4.20;;;3.13;;
11004;SDS011;5555;59.622;16.556;2024-01-06T10:38:02;6.73;;;3.53;;
11004;SDS011;5555;59.622;16.556;2024-01-06T10:40:28;9.67;;;3.53;;
11004;SDS011;5555;59.622;16.556;2024-01-06T10:42:54;6.67;;;3.77;;
11004;SDS011;5555;59.622;16.556;2024-01-06T10:45:22;4.13;;;2.77;;
11004;SDS011;5555;59.622;16.556;2024-01-06T10:47:48;2.97;;;2.60;;
11004;SDS011;5555;59.622;16.556;2024-01-06T10:50:16;5.00;;;3.27;;
11004;SDS011;5555;59.622;16.556;2024-01-06T10:52:42;6.07;;;2.83;;
11004;SDS011;5555;59.622;16.556;2024-01-06T10:55:09;3.43;;;2.40;;
11004;SDS011;5555;59.622;16.556;2024-01-06T10:57:36;9.13;;;2.93;;
11004;SDS011;5555;59.622;16.556;2024-01-06T11:00:04;4.70;;;3.47;;
11004;SDS011;5555;59.622;16.556;2024-01-06T11:02:31;4.30;;;2.97;;
11004;SDS011;5555;59.622;16.556;2024-01-06T11:04:56;3.60;;;2.73;;
11004;SDS011;5555;59.622;16.556;2024-01-06T11:07:23;4.60;;;3.23;;
11004;SDS011;5555;59.622;16.556;2024-01-06T11:13:05;4.20;;;3.10;;
11004;SDS011;5555;59.622;16.556;2024-01-06T11:15:49;4.90;;;3.23;;
11004;SDS011;5555;59.622;16.556;2024-01-06T11:18:36;3.67;;;2.57;;
11004;SDS011;5555;59.622;16.556;2024-01-06T11:21:19;4.70;;;3.00;;
11004;SDS011;5555;59.622;16.556;2024-01-06T11:26:52;3.83;;;2.67;;
11004;SDS011;5555;59.622;16.556;2024-01-06T11:29:21;4.60;;;3.10;;
11004;SDS011;5555;59.622;16.556;2024-01-06T11:34:47;4.43;;;3.27;;
11004;SDS011;5555;59.622;16.556;2024-01-06T11:37:14;3.50;;;2.83;;
11004;SDS011;5555;59.622;16.556;2024-01-06T11:39:42;3.17;;;2.63;;
11004;SDS011;5555;59.622;16.556;2024-01-06T11:42:10;4.70;;;2.70;;
11004;SDS011;5555;59.622;16.556;2024-01-06T11:44:37;3.50;;;2.77;;
11004;SDS011;5555;59.622;16.556;2024-01-06T11:47:04;4.27;;;2.60;;
11004;SDS011;5555;59.622;16.556;2024-01-06T11:49:31;5.30;;;2.63;;
11004;SDS011;5555;59.622;16.556;2024-01-06T11:51:57;4.13;;;2.80;;
11004;SDS011;5555;59.622;16.556;2024-01-06T11:54:23;3.90;;;2.67;;
11004;SDS011;5555;59.622;16.556;2024-01-06T11:56:48;4.40;;;2.73;;
11004;SDS011;5555;59.622;16.556;2024-01-06T11:59:14;3.90;;;3.20;;
11004;SDS011;5555;59.622;16.556;2024-01-06T12:01:40;7.90;;;3.43;;
11004;SDS011;5555;59.622;16.556;2024-01-06T12:04:06;5.20;;;3.00;;
11004;SDS011;5555;59.622;16.556;2024-01-06T12:06:32;4.57;;;3.03;;
11004;SDS011;5555;59.622;16.556;2024-01-06T12:11:30;4.27;;;3.00;;
11004;SDS011;5555;59.622;16.556;2024-01-06T12:13:56;4.47;;;2.73;;
11004;SDS011;5555;59.622;16.556;2024-01-06T12:16:22;3.43;;;3.13;;
11004;SDS011;5555;59.622;16.556;2024-01-06T12:18:52;4.90;;;3.90;;
11004;SDS011;5555;59.622;16.556;2024-01-06T12:21:22;5.60;;;3.60;;
11004;SDS011;5555;59.622;16.556;2024-01-06T12:23:48;5.60;;;3.53;;
11004;SDS011;5555;59.622;16.556;2024-01-06T12:26:14;3.80;;;3.27;;
11004;SDS011;5555;59.622;16.556;2024-01-06T12:28:41;8.07;;;3.33;;
11004;SDS011;5555;59.622;16.556;2024-01-06T12:31:13;4.17;;;2.90;;
11004;SDS011;5555;59.622;16.556;2024-01-06T12:33:39;4.57;;;3.23;;
11004;SDS011;5555;59.622;16.556;2024-01-06T12:36:06;5.93;;;3.17;;
11004;SDS011;5555;59.622;16.556;2024-01-06T12:38:33;6.30;;;3.67;;
11004;SDS011;5555;59.622;16.556;2024-01-06T12:41:00;4.97;;;3.23;;
11004;SDS011;5555;59.622;16.556;2024-01-06T12:43:25;5.00;;;3.20;;
11004;SDS011;5555;59.622;16.556;2024-01-06T12:45:52;5.30;;;3.40;;
11004;SDS011;5555;59.622;16.556;2024-01-06T12:48:18;3.67;;;2.77;;
11004;SDS011;5555;59.622;16.556;2024-01-06T12:50:44;3.87;;;3.17;;
11004;SDS011;5555;59.622;16.556;2024-01-06T12:53:09;4.13;;;2.93;;
11004;SDS011;5555;59.622;16.556;2024-01-06T12:55:37;5.53;;;3.13;;
11004;SDS011;5555;59.622;16.556;2024-01-06T12:58:04;4.40;;;2.87;;
11004;SDS011;5555;59.622;16.556;2024-01-06T13:00:30;3.40;;;2.90;;
11004;SDS011;5555;59.622;16.556;2024-01-06T13:02:55;4.83;;;3.73;;
11004;SDS011;5555;59.622;16.556;2024-01-06T13:05:21;5.30;;;3.20;;
11004;SDS011;5555;59.622;16.556;2024-01-06T13:07:47;6.03;;;3.70;;
11004;SDS011;5555;59.622;16.556;2024-01-06T13:10:14;4.90;;;3.70;;
11004;SDS011;5555;59.622;16.556;2024-01-06T13:12:40;5.57;;;3.50;;
11004;SDS011;5555;59.622;16.556;2024-01-06T13:15:05;4.63;;;3.40;;
11004;SDS011;5555;59.622;16.556;2024-01-06T13:17:36;5.47;;;3.70;;
11004;SDS011;5555;59.622;16.556;2024-01-06T13:20:02;5.63;;;3.40;;
11004;SDS011;5555;59.622;16.556;2024-01-06T13:22:29;4.60;;;3.13;;
11004;SDS011;5555;59.622;16.556;2024-01-06T13:24:55;4.63;;;3.13;;
11004;SDS011;5555;59.622;16.556;2024-01-06T13:27:21;4.17;;;3.53;;
11004;SDS011;5555;59.622;16.556;2024-01-06T13:29:47;4.43;;;3.23;;
11004;SDS011;5555;59.622;16.556;2024-01-06T13:32:12;3.80;;;2.93;;
11004;SDS011;5555;59.622;16.556;2024-01-06T13:34:40;4.17;;;3.10;;
11004;SDS011;5555;59.622;16.556;2024-01-06T13:37:06;3.43;;;2.93;;
11004;SDS011;5555;59.622;16.556;2024-01-06T13:39:32;5.90;;;2.70;;
11004;SDS011;5555;59.622;16.556;2024-01-06T13:41:58;4.40;;;3.07;;
11004;SDS011;5555;59.622;16.556;2024-01-06T13:44:23;3.43;;;2.87;;
11004;SDS011;5555;59.622;16.556;2024-01-06T13:46:49;3.23;;;2.50;;
11004;SDS011;5555;59.622;16.556;2024-01-06T13:49:16;2.80;;;2.20;;
11004;SDS011;5555;59.622;16.556;2024-01-06T13:51:42;4.43;;;2.70;;
11004;SDS011;5555;59.622;16.556;2024-01-06T13:54:08;3.27;;;2.93;;
11004;SDS011;5555;59.622;16.556;2024-01-06T13:56:34;3.17;;;2.53;;
11004;SDS011;5555;59.622;16.556;2024-01-06T13:59:00;3.93;;;2.57;;
11004;SDS011;5555;59.622;16.556;2024-01-06T14:01:26;3.30;;;2.57;;
11004;SDS011;5555;59.622;16.556;2024-01-06T14:03:52;3.70;;;2.80;;
11004;SDS011;5555;59.622;16.556;2024-01-06T14:06:25;2.80;;;2.50;;
11004;SDS011;5555;59.622;16.556;2024-01-06T14:08:57;3.83;;;2.80;;
11004;SDS011;5555;59.622;16.556;2024-01-06T14:11:24;2.73;;;2.50;;
11004;SDS011;5555;59.622;16.556;2024-01-06T14:13:51;2.87;;;2.50;;
11004;SDS011;5555;59.622;16.556;2024-01-06T14:16:17;3.80;;;2.47;;
11004;SDS011;5555;59.622;16.556;2024-01-06T14:18:43;3.83;;;3.00;;
11004;SDS011;5555;59.622;16.556;2024-01-06T14:21:09;3.00;;;2.60;;
11004;SDS011;5555;59.622;16.556;2024-01-06T14:23:35;3.23;;;2.53;;
11004;SDS011;5555;59.622;16.556;2024-01-06T14:26:02;2.87;;;2.40;;
11004;SDS011;5555;59.622;16.556;2024-01-06T14:28:27;4.43;;;2.53;;
11004;SDS011;5555;59.622;16.556;2024-01-06T14:30:53;2.87;;;2.57;;
11004;SDS011;5555;59.622;16.556;2024-01-06T14:33:19;8.80;;;4.70;;
11004;SDS011;5555;59.622;16.556;2024-01-06T14:35:45;3.30;;;2.50;;
11004;SDS011;5555;59.622;16.556;2024-01-06T14:38:11;3.70;;;3.27;;
11004;SDS011;5555;59.622;16.556;2024-01-06T14:40:37;2.73;;;2.50;;
11004;SDS011;5555;59.622;16.556;2024-01-06T14:43:03;3.50;;;2.93;;
11004;SDS011;5555;59.622;16.556;2024-01-06T14:45:29;3.93;;;2.60;;
11004;SDS011;5555;59.622;16.556;2024-01-06T14:47:55;4.87;;;2.60;;
11004;SDS011;5555;59.622;16.556;2024-01-06T14:50:21;2.93;;;2.53;;
11004;SDS011;5555;59.622;16.556;2024-01-06T14:52:46;4.37;;;2.97;;